sensor_id;sensor_type;location;lat;lon;timestamp;P1;durP1;ratioP1;P2;durP2;ratioP2
5026;SDS011;2532;52.480;13.354;2023-04-15T04:00:38;50.33;;;29.30;;
5026;SDS011;2532;52.480;13.354;2023-04-15T04:03:08;49.03;;;28.07;;
5026;SDS011;2532;52.480;13.354;2023-04-15T04:05:37;46.00;;;25.53;;
5026;SDS011;2532;52.480;13.354;2023-04-15T04:08:05;48.33;;;26.83;;
5026;SDS011;2532;52.480;13.354;2023-04-15T04:10:32;45.50;;;25.47;;
5026;SDS011;2532;52.480;13.354;2023-04-15T04:12:59;46.43;;;24.80;;
5026;SDS011;2532;52.480;13.354;2023-04-15T04:15:26;46.50;;;26.13;;
5026;SDS011;2532;52.480;13.354;2023-04-15T04:17:55;40.63;;;24.13;;
5026;SDS011;2532;52.480;13.354;2023-04-15T04:20:22;40.20;;;24.70;;
5026;SDS011;2532;52.480;13.354;2023-04-15T04:22:49;43.23;;;25.20;;
5026;SDS011;2532;52.480;13.354;2023-04-15T04:25:16;44.20;;;25.30;;
5026;SDS011;2532;52.480;13.354;2023-04-15T04:27:42;39.13;;;23.70;;
5026;SDS011;2532;52.480;13.354;2023-04-15T04:30:10;41.87;;;25.13;;
5026;SDS011;2532;52.480;13.354;2023-04-15T04:32:38;41.90;;;23.70;;
5026;SDS011;2532;52.480;13.354;2023-04-15T04:35:06;43.37;;;25.33;;
5026;SDS011;2532;52.480;13.354;2023-04-15T04:37:34;38.73;;;24.67;;
5026;SDS011;2532;52.480;13.354;2023-04-15T04:40:01;41.50;;;25.50;;
5026;SDS011;2532;52.480;13.354;2023-04-15T04:42:28;41.20;;;22.50;;
5026;SDS011;2532;52.480;13.354;2023-04-15T04:44:55;35.70;;;23.30;;
5026;SDS011;2532;52.480;13.354;2023-04-15T04:47:22;41.47;;;23.83;;
5026;SDS011;2532;52.480;13.354;2023-04-15T04:49:49;34.80;;;22.13;;
5026;SDS011;2532;52.480;13.354;2023-04-15T04:52:17;37.43;;;22.53;;
5026;SDS011;2532;52.480;13.354;2023-04-15T04:54:44;36.70;;;23.00;;
5026;SDS011;2532;52.480;13.354;2023-04-15T04:57:11;38.00;;;22.83;;
5026;SDS011;2532;52.480;13.354;2023-04-15T04:59:38;35.93;;;22.23;;
5026;SDS011;2532;52.480;13.354;2023-04-15T05:02:06;38.00;;;22.00;;
5026;SDS011;2532;52.480;13.354;2023-04-15T05:04:32;30.10;;;20.43;;
5026;SDS011;2532;52.480;13.354;2023-04-15T05:07:00;34.43;;;21.50;;
5026;SDS011;2532;52.480;13.354;2023-04-15T05:09:29;36.87;;;23.33;;
5026;SDS011;2532;52.480;13.354;2023-04-15T05:11:57;40.27;;;22.03;;
5026;SDS011;2532;52.480;13.354;2023-04-15T05:14:24;34.03;;;21.97;;
5026;SDS011;2532;52.480;13.354;2023-04-15T05:16:51;38.83;;;22.03;;
5026;SDS011;2532;52.480;13.354;2023-04-15T05:19:18;40.33;;;22.53;;
5026;SDS011;2532;52.480;13.354;2023-04-15T05:21:45;30.27;;;20.40;;
5026;SDS011;2532;52.480;13.354;2023-04-15T05:24:12;35.07;;;20.90;;
5026;SDS011;2532;52.480;13.354;2023-04-15T05:26:40;32.40;;;21.27;;
5026;SDS011;2532;52.480;13.354;2023-04-15T05:29:07;31.90;;;21.10;;
5026;SDS011;2532;52.480;13.354;2023-04-15T05:31:34;30.93;;;20.70;;
5026;SDS011;2532;52.480;13.354;2023-04-15T05:34:01;32.10;;;20.50;;
5026;SDS011;2532;52.480;13.354;2023-04-15T05:36:29;29.73;;;19.80;;
5026;SDS011;2532;52.480;13.354;2023-04-15T05:38:56;27.57;;;18.93;;
5026;SDS011;2532;52.480;13.354;2023-04-15T05:41:23;27.87;;;18.67;;
5026;SDS011;2532;52.480;13.354;2023-04-15T05:43:51;30.23;;;18.90;;
5026;SDS011;2532;52.480;13.354;2023-04-15T05:46:18;29.93;;;20.23;;
5026;SDS011;2532;52.480;13.354;2023-04-15T05:48:45;28.70;;;18.13;;
5026;SDS011;2532;52.480;13.354;2023-04-15T05:51:12;25.87;;;18.70;;
5026;SDS011;2532;52.480;13.354;2023-04-15T05:53:39;28.13;;;18.20;;
5026;SDS011;2532;52.480;13.354;2023-04-15T05:56:06;29.60;;;17.73;;
5026;SDS011;2532;52.480;13.354;2023-04-15T05:58:33;25.90;;;18.37;;
5026;SDS011;2532;52.480;13.354;2023-04-15T06:01:03;24.40;;;17.33;;
5026;SDS011;2532;52.480;13.354;2023-04-15T06:03:31;28.03;;;16.60;;
5026;SDS011;2532;52.480;13.354;2023-04-15T06:05:58;26.87;;;16.97;;
5026;SDS011;2532;52.480;13.354;2023-04-15T06:08:25;22.27;;;16.07;;
5026;SDS011;2532;52.480;13.354;2023-04-15T06:10:52;28.00;;;17.90;;
5026;SDS011;2532;52.480;13.354;2023-04-15T06:13:19;25.30;;;16.50;;
5026;SDS011;2532;52.480;13.354;2023-04-15T06:15:46;27.03;;;17.17;;
5026;SDS011;2532;52.480;13.354;2023-04-15T06:18:15;20.37;;;15.90;;
5026;SDS011;2532;52.480;13.354;2023-04-15T06:20:42;25.00;;;16.40;;
5026;SDS011;2532;52.480;13.354;2023-04-15T06:23:09;20.80;;;15.97;;
5026;SDS011;2532;52.480;13.354;2023-04-15T06:25:35;24.70;;;16.07;;
5026;SDS011;2532;52.480;13.354;2023-04-15T06:28:02;22.60;;;15.57;;
5026;SDS011;2532;52.480;13.354;2023-04-15T06:30:30;24.23;;;16.13;;
5026;SDS011;2532;52.480;13.354;2023-04-15T06:32:56;19.93;;;14.73;;
5026;SDS011;2532;52.480;13.354;2023-04-15T06:35:25;19.60;;;14.67;;
5026;SDS011;2532;52.480;13.354;2023-04-15T06:37:52;25.70;;;15.40;;
5026;SDS011;2532;52.480;13.354;2023-04-15T06:40:19;21.07;;;14.80;;
5026;SDS011;2532;52.480;13.354;2023-04-15T06:42:46;24.50;;;15.37;;
5026;SDS011;2532;52.480;13.354;2023-04-15T06:45:13;21.53;;;14.87;;
5026;SDS011;2532;52.480;13.354;2023-04-15T06:47:40;22.10;;;15.77;;
5026;SDS011;2532;52.480;13.354;2023-04-15T06:50:08;19.97;;;13.67;;
5026;SDS011;2532;52.480;13.354;2023-04-15T06:52:37;22.47;;;15.10;;
5026;SDS011;2532;52.480;13.354;2023-04-15T06:55:04;19.33;;;14.73;;
5026;SDS011;2532;52.480;13.354;2023-04-15T06:57:32;18.93;;;14.50;;
5026;SDS011;2532;52.480;13.354;2023-04-15T06:59:58;20.97;;;14.93;;
5026;SDS011;2532;52.480;13.354;2023-04-15T07:02:25;20.93;;;14.20;;
5026;SDS011;2532;52.480;13.354;2023-04-15T07:04:52;17.50;;;15.00;;
5026;SDS011;2532;52.480;13.354;2023-04-15T07:07:21;19.70;;;13.60;;
5026;SDS011;2532;52.480;13.354;2023-04-15T07:09:49;21.07;;;14.73;;
5026;SDS011;2532;52.480;13.354;2023-04-15T07:12:16;19.57;;;14.63;;
5026;SDS011;2532;52.480;13.354;2023-04-15T07:14:43;19.40;;;13.73;;
5026;SDS011;2532;52.480;13.354;2023-04-15T07:17:10;18.60;;;13.97;;
5026;SDS011;2532;52.480;13.354;2023-04-15T07:19:37;19.07;;;13.47;;
5026;SDS011;2532;52.480;13.354;2023-04-15T07:22:04;18.23;;;13.70;;
5026;SDS011;2532;52.480;13.354;2023-04-15T07:24:31;22.90;;;13.97;;
5026;SDS011;2532;52.480;13.354;2023-04-15T07:27:00;21.03;;;14.70;;
5026;SDS011;2532;52.480;13.354;2023-04-15T07:29:28;19.80;;;14.47;;
5026;SDS011;2532;52.480;13.354;2023-04-15T07:31:55;22.10;;;13.20;;
5026;SDS011;2532;52.480;13.354;2023-04-15T07:34:22;17.93;;;13.10;;
5026;SDS011;2532;52.480;13.354;2023-04-15T07:36:49;19.10;;;13.77;;
5026;SDS011;2532;52.480;13.354;2023-04-15T07:39:16;19.83;;;14.20;;
5026;SDS011;2532;52.480;13.354;2023-04-15T07:41:43;23.30;;;13.50;;
5026;SDS011;2532;52.480;13.354;2023-04-15T07:44:12;18.30;;;14.07;;
5026;SDS011;2532;52.480;13.354;2023-04-15T07:46:39;17.77;;;13.90;;
5026;SDS011;2532;52.480;13.354;2023-04-15T07:49:06;17.20;;;14.40;;
5026;SDS011;2532;52.480;13.354;2023-04-15T07:51:33;20.70;;;15.87;;
5026;SDS011;2532;52.480;13.354;2023-04-15T07:54:00;22.77;;;14.47;;
5026;SDS011;2532;52.480;13.354;2023-04-15T07:56:28;20.60;;;14.33;;
5026;SDS011;2532;52.480;13.354;2023-04-15T07:58:55;18.30;;;14.50;;
5026;SDS011;2532;52.480;13.354;2023-04-15T08:01:23;19.40;;;15.20;;
5026;SDS011;2532;52.480;13.354;2023-04-15T08:03:50;18.83;;;14.40;;
5026;SDS011;2532;52.480;13.354;2023-04-15T08:06:17;24.10;;;14.60;;
5026;SDS011;2532;52.480;13.354;2023-04-15T08:08:44;18.80;;;14.43;;
5026;SDS011;2532;52.480;13.354;2023-04-15T08:11:11;19.30;;;14.40;;
5026;SDS011;2532;52.480;13.354;2023-04-15T08:13:38;20.17;;;15.10;;
5026;SDS011;2532;52.480;13.354;2023-04-15T08:16:18;19.40;;;14.40;;
5026;SDS011;2532;52.480;13.354;2023-04-15T08:18:48;21.37;;;15.10;;
5026;SDS011;2532;52.480;13.354;2023-04-15T08:21:16;18.20;;;14.83;;
5026;SDS011;2532;52.480;13.354;2023-04-15T08:23:44;19.50;;;15.00;;
5026;SDS011;2532;52.480;13.354;2023-04-15T08:26:12;18.37;;;15.00;;
5026;SDS011;2532;52.480;13.354;2023-04-15T08:28:39;23.90;;;15.30;;
5026;SDS011;2532;52.480;13.354;2023-04-15T08:31:07;19.77;;;16.27;;
5026;SDS011;2532;52.480;13.354;2023-04-15T08:33:34;22.20;;;15.80;;
5026;SDS011;2532;52.480;13.354;2023-04-15T08:36:03;20.83;;;15.40;;
5026;SDS011;2532;52.480;13.354;2023-04-15T08:38:30;19.47;;;15.17;;
5026;SDS011;2532;52.480;13.354;2023-04-15T08:40:57;20.13;;;15.40;;
5026;SDS011;2532;52.480;13.354;2023-04-15T08:43:32;18.37;;;15.10;;
5026;SDS011;2532;52.480;13.354;2023-04-15T08:46:00;18.10;;;15.10;;
5026;SDS011;2532;52.480;13.354;2023-04-15T08:48:27;19.73;;;15.60;;
5026;SDS011;2532;52.480;13.354;2023-04-15T08:50:56;21.23;;;15.70;;
5026;SDS011;2532;52.480;13.354;2023-04-15T08:53:27;20.77;;;14.73;;
5026;SDS011;2532;52.480;13.354;2023-04-15T08:55:56;21.70;;;16.60;;
5026;SDS011;2532;52.480;13.354;2023-04-15T08:58:25;23.03;;;16.87;;
5026;SDS011;2532;52.480;13.354;2023-04-15T09:00:52;20.93;;;14.90;;
5026;SDS011;2532;52.480;13.354;2023-04-15T09:03:20;21.00;;;15.70;;
5026;SDS011;2532;52.480;13.354;2023-04-15T09:05:47;18.60;;;14.63;;
5026;SDS011;2532;52.480;13.354;2023-04-15T09:08:16;23.93;;;16.47;;
5026;SDS011;2532;52.480;13.354;2023-04-15T09:10:44;23.73;;;16.30;;
5026;SDS011;2532;52.480;13.354;2023-04-15T09:13:11;24.80;;;15.53;;
5026;SDS011;2532;52.480;13.354;2023-04-15T09:15:38;23.47;;;16.93;;
5026;SDS011;2532;52.480;13.354;2023-04-15T09:18:05;20.20;;;15.47;;
5026;SDS011;2532;52.480;13.354;2023-04-15T09:20:37;18.80;;;15.83;;
5026;SDS011;2532;52.480;13.354;2023-04-15T09:23:10;20.60;;;16.50;;
5026;SDS011;2532;52.480;13.354;2023-04-15T09:25:38;23.73;;;16.00;;
5026;SDS011;2532;52.480;13.354;2023-04-15T09:28:08;21.17;;;17.00;;
5026;SDS011;2532;52.480;13.354;2023-04-15T09:30:36;23.90;;;17.43;;
5026;SDS011;2532;52.480;13.354;2023-04-15T09:33:03;24.10;;;16.37;;
5026;SDS011;2532;52.480;13.354;2023-04-15T09:35:32;20.10;;;16.63;;
5026;SDS011;2532;52.480;13.354;2023-04-15T09:38:01;19.50;;;15.90;;
5026;SDS011;2532;52.480;13.354;2023-04-15T09:40:33;21.17;;;15.07;;
5026;SDS011;2532;52.480;13.354;2023-04-15T09:43:01;22.57;;;16.07;;
5026;SDS011;2532;52.480;13.354;2023-04-15T09:45:31;18.00;;;15.50;;
5026;SDS011;2532;52.480;13.354;2023-04-15T09:48:00;18.00;;;15.20;;
5026;SDS011;2532;52.480;13.354;2023-04-15T09:50:41;22.70;;;16.50;;
5026;SDS011;2532;52.480;13.354;2023-04-15T09:53:08;18.37;;;16.27;;
5026;SDS011;2532;52.480;13.354;2023-04-15T09:55:36;20.70;;;16.23;;
5026;SDS011;2532;52.480;13.354;2023-04-15T09:58:07;22.13;;;16.63;;
5026;SDS011;2532;52.480;13.354;2023-04-15T10:00:36;19.63;;;16.57;;
5026;SDS011;2532;52.480;13.354;2023-04-15T10:03:04;22.90;;;15.03;;
5026;SDS011;2532;52.480;13.354;2023-04-15T10:05:31;24.10;;;15.43;;
5026;SDS011;2532;52.480;13.354;2023-04-15T10:07:59;17.60;;;15.57;;
5026;SDS011;2532;52.480;13.354;2023-04-15T10:10:28;20.90;;;14.90;;
5026;SDS011;2532;52.480;13.354;2023-04-15T10:12:57;23.50;;;14.83;;
5026;SDS011;2532;52.480;13.354;2023-04-15T10:15:25;19.07;;;15.83;;
5026;SDS011;2532;52.480;13.354;2023-04-15T10:17:56;19.70;;;16.57;;
5026;SDS011;2532;52.480;13.354;2023-04-15T10:20:25;18.63;;;15.30;;
5026;SDS011;2532;52.480;13.354;2023-04-15T10:22:55;22.27;;;16.27;;
5026;SDS011;2532;52.480;13.354;2023-04-15T10:25:23;19.43;;;16.03;;
5026;SDS011;2532;52.480;13.354;2023-04-15T10:27:51;18.23;;;15.73;;
5026;SDS011;2532;52.480;13.354;2023-04-15T10:30:19;19.97;;;15.80;;
5026;SDS011;2532;52.480;13.354;2023-04-15T10:32:46;22.00;;;16.97;;
5026;SDS011;2532;52.480;13.354;2023-04-15T10:35:16;19.93;;;15.90;;
5026;SDS011;2532;52.480;13.354;2023-04-15T10:37:45;23.57;;;17.33;;
5026;SDS011;2532;52.480;13.354;2023-04-15T10:40:28;23.70;;;18.30;;
5026;SDS011;2532;52.480;13.354;2023-04-15T10:42:57;21.27;;;15.73;;
5026;SDS011;2532;52.480;13.354;2023-04-15T10:45:25;18.50;;;14.70;;
5026;SDS011;2532;52.480;13.354;2023-04-15T10:47:56;17.87;;;14.80;;
5026;SDS011;2532;52.480;13.354;2023-04-15T10:50:29;20.03;;;15.50;;
5026;SDS011;2532;52.480;13.354;2023-04-15T10:52:57;17.37;;;14.40;;
5026;SDS011;2532;52.480;13.354;2023-04-15T10:55:24;19.73;;;15.73;;
5026;SDS011;2532;52.480;13.354;2023-04-15T10:57:53;17.27;;;15.30;;
5026;SDS011;2532;52.480;13.354;2023-04-15T11:00:23;20.10;;;15.83;;
5026;SDS011;2532;52.480;13.354;2023-04-15T11:02:52;22.43;;;14.57;;
5026;SDS011;2532;52.480;13.354;2023-04-15T11:05:21;19.37;;;15.03;;
5026;SDS011;2532;52.480;13.354;2023-04-15T11:07:54;19.90;;;14.83;;
5026;SDS011;2532;52.480;13.354;2023-04-15T11:13:21;18.10;;;15.27;;
5026;SDS011;2532;52.480;13.354;2023-04-15T11:16:01;21.40;;;15.40;;
5026;SDS011;2532;52.480;13.354;2023-04-15T11:18:32;20.60;;;15.53;;
5026;SDS011;2532;52.480;13.354;2023-04-15T11:21:01;17.33;;;14.10;;
5026;SDS011;2532;52.480;13.354;2023-04-15T11:23:32;18.90;;;15.67;;
5026;SDS011;2532;52.480;13.354;2023-04-15T11:26:02;19.70;;;16.37;;
5026;SDS011;2532;52.480;13.354;2023-04-15T11:28:33;21.10;;;14.40;;
5026;SDS011;2532;52.480;13.354;2023-04-15T11:31:04;16.83;;;14.80;;
5026;SDS011;2532;52.480;13.354;2023-04-15T11:33:32;18.37;;;15.00;;
5026;SDS011;2532;52.480;13.354;2023-04-15T11:36:01;18.13;;;14.80;;
5026;SDS011;2532;52.480;13.354;2023-04-15T11:38:28;18.27;;;15.70;;
5026;SDS011;2532;52.480;13.354;2023-04-15T11:40:58;21.20;;;16.67;;
5026;SDS011;2532;52.480;13.354;2023-04-15T11:43:25;18.50;;;15.07;;
5026;SDS011;2532;52.480;13.354;2023-04-15T11:45:52;21.50;;;16.10;;
5026;SDS011;2532;52.480;13.354;2023-04-15T11:48:21;21.37;;;15.70;;
5026;SDS011;2532;52.480;13.354;2023-04-15T11:50:52;19.43;;;15.93;;
5026;SDS011;2532;52.480;13.354;2023-04-15T11:53:20;19.10;;;15.30;;
5026;SDS011;2532;52.480;13.354;2023-04-15T11:55:49;20.43;;;15.87;;
5026;SDS011;2532;52.480;13.354;2023-04-15T11:58:20;20.13;;;15.93;;
5026;SDS011;2532;52.480;13.354;2023-04-15T12:00:49;21.03;;;16.43;;
5026;SDS011;2532;52.480;13.354;2023-04-15T12:03:20;21.40;;;15.33;;
5026;SDS011;2532;52.480;13.354;2023-04-15T12:08:58;17.67;;;15.17;;
5026;SDS011;2532;52.480;13.354;2023-04-15T12:11:33;20.20;;;14.93;;
5026;SDS011;2532;52.480;13.354;2023-04-15T12:14:09;18.50;;;14.40;;
5026;SDS011;2532;52.480;13.354;2023-04-15T12:16:39;20.37;;;16.33;;
5026;SDS011;2532;52.480;13.354;2023-04-15T12:19:08;18.50;;;14.57;;
5026;SDS011;2532;52.480;13.354;2023-04-15T12:21:37;18.80;;;14.73;;
5026;SDS011;2532;52.480;13.354;2023-04-15T12:24:06;18.60;;;15.40;;
5026;SDS011;2532;52.480;13.354;2023-04-15T12:26:42;24.03;;;15.40;;
5026;SDS011;2532;52.480;13.354;2023-04-15T12:29:12;19.57;;;14.70;;
5026;SDS011;2532;52.480;13.354;2023-04-15T12:31:50;17.93;;;14.90;;
5026;SDS011;2532;52.480;13.354;2023-04-15T12:34:24;20.70;;;14.10;;
5026;SDS011;2532;52.480;13.354;2023-04-15T12:36:53;19.70;;;14.30;;
5026;SDS011;2532;52.480;13.354;2023-04-15T12:39:22;16.73;;;12.90;;
5026;SDS011;2532;52.480;13.354;2023-04-15T12:41:49;17.73;;;13.80;;
5026;SDS011;2532;52.480;13.354;2023-04-15T12:44:18;16.13;;;12.20;;
5026;SDS011;2532;52.480;13.354;2023-04-15T12:46:46;16.03;;;13.57;;
5026;SDS011;2532;52.480;13.354;2023-04-15T12:49:13;18.67;;;13.33;;
5026;SDS011;2532;52.480;13.354;2023-04-15T12:51:40;23.50;;;14.40;;
5026;SDS011;2532;52.480;13.354;2023-04-15T12:54:07;17.80;;;14.10;;
5026;SDS011;2532;52.480;13.354;2023-04-15T12:56:34;17.43;;;14.03;;
5026;SDS011;2532;52.480;13.354;2023-04-15T12:59:04;16.60;;;13.10;;
5026;SDS011;2532;52.480;13.354;2023-04-15T13:01:32;19.27;;;14.10;;
5026;SDS011;2532;52.480;13.354;2023-04-15T13:04:00;19.00;;;14.80;;
5026;SDS011;2532;52.480;13.354;2023-04-15T13:06:27;17.37;;;13.33;;
5026;SDS011;2532;52.480;13.354;2023-04-15T13:08:54;18.30;;;14.20;;
5026;SDS011;2532;52.480;13.354;2023-04-15T13:11:21;17.43;;;13.10;;
5026;SDS011;2532;52.480;13.354;2023-04-15T13:13:49;14.97;;;12.97;;
5026;SDS011;2532;52.480;13.354;2023-04-15T13:16:16;13.13;;;11.13;;
5026;SDS011;2532;52.480;13.354;2023-04-15T13:18:45;15.63;;;12.30;;
5026;SDS011;2532;52.480;13.354;2023-04-15T13:21:12;14.57;;;12.50;;
5026;SDS011;2532;52.480;13.354;2023-04-15T13:23:39;14.17;;;11.80;;
5026;SDS011;2532;52.480;13.354;2023-04-15T13:26:07;14.47;;;12.13;;
5026;SDS011;2532;52.480;13.354;2023-04-15T13:28:34;14.50;;;12.00;;
5026;SDS011;2532;52.480;13.354;2023-04-15T13:31:01;14.53;;;11.90;;
5026;SDS011;2532;52.480;13.354;2023-04-15T13:33:28;13.83;;;11.33;;
5026;SDS011;2532;52.480;13.354;2023-04-15T13:35:56;16.57;;;12.70;;
5026;SDS011;2532;52.480;13.354;2023-04-15T13:38:23;14.07;;;11.50;;
5026;SDS011;2532;52.480;13.354;2023-04-15T13:40:50;16.17;;;12.30;;
5026;SDS011;2532;52.480;13.354;2023-04-15T13:43:17;14.73;;;12.30;;
5026;SDS011;2532;52.480;13.354;2023-04-15T13:45:45;17.03;;;12.37;;
5026;SDS011;2532;52.480;13.354;2023-04-15T13:48:13;13.87;;;11.83;;
5026;SDS011;2532;52.480;13.354;2023-04-15T13:50:40;13.93;;;11.43;;
5026;SDS011;2532;52.480;13.354;2023-04-15T13:53:11;18.90;;;11.17;;
5026;SDS011;2532;52.480;13.354;2023-04-15T13:55:38;13.73;;;11.63;;
5026;SDS011;2532;52.480;13.354;2023-04-15T13:58:06;12.10;;;10.80;;
5026;SDS011;2532;52.480;13.354;2023-04-15T14:00:33;15.47;;;12.00;;
5026;SDS011;2532;52.480;13.354;2023-04-15T14:03:00;12.73;;;10.70;;
5026;SDS011;2532;52.480;13.354;2023-04-15T14:05:27;12.63;;;10.70;;
5026;SDS011;2532;52.480;13.354;2023-04-15T14:07:54;14.17;;;10.80;;
5026;SDS011;2532;52.480;13.354;2023-04-15T14:10:23;12.03;;;10.83;;
5026;SDS011;2532;52.480;13.354;2023-04-15T14:12:50;12.47;;;10.93;;
5026;SDS011;2532;52.480;13.354;2023-04-15T14:15:17;11.30;;;9.80;;
5026;SDS011;2532;52.480;13.354;2023-04-15T14:17:44;12.90;;;10.80;;
5026;SDS011;2532;52.480;13.354;2023-04-15T14:20:11;11.90;;;9.10;;
5026;SDS011;2532;52.480;13.354;2023-04-15T14:22:38;13.60;;;10.00;;
5026;SDS011;2532;52.480;13.354;2023-04-15T14:25:06;11.47;;;9.90;;
5026;SDS011;2532;52.480;13.354;2023-04-15T14:27:35;12.97;;;9.93;;
5026;SDS011;2532;52.480;13.354;2023-04-15T14:30:03;12.57;;;9.93;;
5026;SDS011;2532;52.480;13.354;2023-04-15T14:32:30;12.47;;;9.80;;
5026;SDS011;2532;52.480;13.354;2023-04-15T14:34:57;13.00;;;10.40;;
5026;SDS011;2532;52.480;13.354;2023-04-15T14:37:24;14.13;;;10.60;;
5026;SDS011;2532;52.480;13.354;2023-04-15T14:39:52;13.90;;;10.90;;
5026;SDS011;2532;52.480;13.354;2023-04-15T14:42:19;13.43;;;10.90;;
5026;SDS011;2532;52.480;13.354;2023-04-15T14:44:47;13.70;;;11.30;;
5026;SDS011;2532;52.480;13.354;2023-04-15T14:47:14;14.53;;;11.60;;
5026;SDS011;2532;52.480;13.354;2023-04-15T14:49:41;17.10;;;11.90;;
5026;SDS011;2532;52.480;13.354;2023-04-15T14:52:08;13.83;;;10.83;;
5026;SDS011;2532;52.480;13.354;2023-04-15T14:54:35;14.67;;;11.50;;
5026;SDS011;2532;52.480;13.354;2023-04-15T14:57:02;13.03;;;9.83;;
5026;SDS011;2532;52.480;13.354;2023-04-15T14:59:29;13.40;;;10.97;;
5026;SDS011;2532;52.480;13.354;2023-04-15T15:01:57;14.03;;;10.37;;
5026;SDS011;2532;52.480;13.354;2023-04-15T15:04:24;11.70;;;9.90;;
5026;SDS011;2532;52.480;13.354;2023-04-15T15:06:51;12.60;;;9.53;;
5026;SDS011;2532;52.480;13.354;2023-04-15T15:09:18;13.53;;;11.07;;
5026;SDS011;2532;52.480;13.354;2023-04-15T15:11:47;12.90;;;9.70;;
5026;SDS011;2532;52.480;13.354;2023-04-15T15:14:14;11.07;;;9.33;;
5026;SDS011;2532;52.480;13.354;2023-04-15T15:16:41;12.00;;;9.83;;
5026;SDS011;2532;52.480;13.354;2023-04-15T15:21:52;11.70;;;10.00;;
5026;SDS011;2532;52.480;13.354;2023-04-15T15:24:19;11.90;;;9.53;;
5026;SDS011;2532;52.480;13.354;2023-04-15T15:26:46;12.07;;;9.50;;
5026;SDS011;2532;52.480;13.354;2023-04-15T15:29:14;12.70;;;10.73;;
5026;SDS011;2532;52.480;13.354;2023-04-15T15:31:41;11.60;;;10.07;;
5026;SDS011;2532;52.480;13.354;2023-04-15T15:34:08;13.93;;;10.23;;
5026;SDS011;2532;52.480;13.354;2023-04-15T15:36:37;13.07;;;9.47;;
5026;SDS011;2532;52.480;13.354;2023-04-15T15:39:04;11.00;;;9.60;;
5026;SDS011;2532;52.480;13.354;2023-04-15T15:41:31;10.77;;;9.60;;
5026;SDS011;2532;52.480;13.354;2023-04-15T15:44:04;11.47;;;9.97;;
5026;SDS011;2532;52.480;13.354;2023-04-15T15:46:31;11.33;;;9.77;;
5026;SDS011;2532;52.480;13.354;2023-04-15T15:48:59;11.20;;;10.03;;
5026;SDS011;2532;52.480;13.354;2023-04-15T15:51:28;11.60;;;9.63;;
5026;SDS011;2532;52.480;13.354;2023-04-15T15:53:57;13.00;;;11.30;;
5026;SDS011;2532;52.480;13.354;2023-04-15T15:56:24;12.87;;;10.10;;
5026;SDS011;2532;52.480;13.354;2023-04-15T15:58:51;11.47;;;8.90;;
5026;SDS011;2532;52.480;13.354;2023-04-15T16:01:18;13.23;;;10.07;;
5026;SDS011;2532;52.480;13.354;2023-04-15T16:03:46;10.50;;;8.87;;
5026;SDS011;2532;52.480;13.354;2023-04-15T16:06:13;10.50;;;9.40;;
5026;SDS011;2532;52.480;13.354;2023-04-15T16:08:40;12.50;;;10.30;;
5026;SDS011;2532;52.480;13.354;2023-04-15T16:11:09;10.67;;;8.90;;
5026;SDS011;2532;52.480;13.354;2023-04-15T16:13:36;10.50;;;9.30;;
5026;SDS011;2532;52.480;13.354;2023-04-15T16:16:03;9.00;;;8.10;;
5026;SDS011;2532;52.480;13.354;2023-04-15T16:18:30;13.00;;;9.70;;
5026;SDS011;2532;52.480;13.354;2023-04-15T16:21:13;12.57;;;9.80;;
5026;SDS011;2532;52.480;13.354;2023-04-15T16:23:41;11.07;;;9.43;;
5026;SDS011;2532;52.480;13.354;2023-04-15T16:26:09;13.87;;;9.73;;
5026;SDS011;2532;52.480;13.354;2023-04-15T16:28:36;11.20;;;9.70;;
5026;SDS011;2532;52.480;13.354;2023-04-15T16:31:03;12.40;;;10.10;;
5026;SDS011;2532;52.480;13.354;2023-04-15T16:33:31;11.60;;;9.47;;
5026;SDS011;2532;52.480;13.354;2023-04-15T16:35:57;11.47;;;9.63;;
5026;SDS011;2532;52.480;13.354;2023-04-15T16:38:25;9.20;;;8.30;;
5026;SDS011;2532;52.480;13.354;2023-04-15T16:40:52;11.03;;;9.67;;
5026;SDS011;2532;52.480;13.354;2023-04-15T16:43:26;11.60;;;8.80;;
5026;SDS011;2532;52.480;13.354;2023-04-15T16:45:54;12.23;;;9.10;;
5026;SDS011;2532;52.480;13.354;2023-04-15T16:48:21;11.37;;;9.50;;
5026;SDS011;2532;52.480;13.354;2023-04-15T16:50:48;10.20;;;8.77;;
5026;SDS011;2532;52.480;13.354;2023-04-15T16:53:15;9.73;;;8.73;;
5026;SDS011;2532;52.480;13.354;2023-04-15T16:55:42;9.90;;;8.67;;
5026;SDS011;2532;52.480;13.354;2023-04-15T16:58:08;11.57;;;9.13;;
5026;SDS011;2532;52.480;13.354;2023-04-15T17:00:37;11.90;;;8.87;;
5026;SDS011;2532;52.480;13.354;2023-04-15T17:03:04;10.00;;;8.40;;
5026;SDS011;2532;52.480;13.354;2023-04-15T17:05:36;9.50;;;8.07;;
5026;SDS011;2532;52.480;13.354;2023-04-15T17:08:03;9.20;;;7.80;;
5026;SDS011;2532;52.480;13.354;2023-04-15T17:10:32;9.47;;;7.37;;
5026;SDS011;2532;52.480;13.354;2023-04-15T17:12:59;9.57;;;8.37;;
5026;SDS011;2532;52.480;13.354;2023-04-15T17:15:26;8.90;;;7.97;;
5026;SDS011;2532;52.480;13.354;2023-04-15T17:17:54;8.73;;;7.83;;
5026;SDS011;2532;52.480;13.354;2023-04-15T17:20:21;11.70;;;9.03;;
5026;SDS011;2532;52.480;13.354;2023-04-15T17:22:48;8.57;;;7.53;;
5026;SDS011;2532;52.480;13.354;2023-04-15T17:25:16;9.30;;;8.07;;
5026;SDS011;2532;52.480;13.354;2023-04-15T17:27:43;11.30;;;9.07;;
5026;SDS011;2532;52.480;13.354;2023-04-15T17:30:10;9.23;;;8.17;;
5026;SDS011;2532;52.480;13.354;2023-04-15T17:32:37;10.17;;;8.67;;
5026;SDS011;2532;52.480;13.354;2023-04-15T17:35:06;9.80;;;8.80;;
5026;SDS011;2532;52.480;13.354;2023-04-15T17:37:34;12.23;;;8.40;;
5026;SDS011;2532;52.480;13.354;2023-04-15T17:40:02;8.67;;;7.83;;
5026;SDS011;2532;52.480;13.354;2023-04-15T17:42:29;10.40;;;8.70;;
5026;SDS011;2532;52.480;13.354;2023-04-15T17:44:58;9.37;;;8.37;;
5026;SDS011;2532;52.480;13.354;2023-04-15T17:47:26;9.13;;;8.13;;
5026;SDS011;2532;52.480;13.354;2023-04-15T17:49:53;9.40;;;8.50;;
5026;SDS011;2532;52.480;13.354;2023-04-15T17:52:21;10.77;;;8.40;;
5026;SDS011;2532;52.480;13.354;2023-04-15T17:54:48;10.93;;;8.47;;
5026;SDS011;2532;52.480;13.354;2023-04-15T17:57:15;11.20;;;8.27;;
5026;SDS011;2532;52.480;13.354;2023-04-15T17:59:42;11.40;;;9.53;;
5026;SDS011;2532;52.480;13.354;2023-04-15T18:02:11;9.60;;;8.20;;
5026;SDS011;2532;52.480;13.354;2023-04-15T18:04:39;9.73;;;8.10;;
5026;SDS011;2532;52.480;13.354;2023-04-15T18:07:06;11.83;;;9.40;;
5026;SDS011;2532;52.480;13.354;2023-04-15T18:09:34;11.17;;;8.97;;
5026;SDS011;2532;52.480;13.354;2023-04-15T18:12:01;9.00;;;8.10;;
5026;SDS011;2532;52.480;13.354;2023-04-15T18:14:29;10.50;;;9.00;;
5026;SDS011;2532;52.480;13.354;2023-04-15T18:16:55;13.00;;;10.03;;
5026;SDS011;2532;52.480;13.354;2023-04-15T18:19:22;11.70;;;9.20;;
5026;SDS011;2532;52.480;13.354;2023-04-15T18:21:50;14.57;;;10.87;;
5026;SDS011;2532;52.480;13.354;2023-04-15T18:24:17;12.03;;;9.33;;
5026;SDS011;2532;52.480;13.354;2023-04-15T18:26:45;17.10;;;11.80;;
5026;SDS011;2532;52.480;13.354;2023-04-15T18:29:13;29.23;;;13.90;;
5026;SDS011;2532;52.480;13.354;2023-04-15T18:31:40;17.27;;;11.50;;
5026;SDS011;2532;52.480;13.354;2023-04-15T18:34:07;15.00;;;10.90;;
5026;SDS011;2532;52.480;13.354;2023-04-15T18:36:34;13.70;;;10.87;;
5026;SDS011;2532;52.480;13.354;2023-04-15T18:39:00;14.37;;;11.50;;
5026;SDS011;2532;52.480;13.354;2023-04-15T18:41:28;13.40;;;10.33;;
5026;SDS011;2532;52.480;13.354;2023-04-15T18:43:56;13.80;;;10.43;;
5026;SDS011;2532;52.480;13.354;2023-04-15T18:46:23;11.77;;;9.90;;
5026;SDS011;2532;52.480;13.354;2023-04-15T18:48:50;12.63;;;10.57;;
5026;SDS011;2532;52.480;13.354;2023-04-15T18:51:17;12.60;;;10.33;;